Time;durP1;ratioP1;P1;durP2;ratioP2;P2;SDS_P1;SDS_P2;PMS_P1;PMS_P2;Temp;Humidity;BMP_temperature;BMP_pressure;BME280_temperature;BME280_humidity;BME280_pressure;Samples;Min_cycle;Max_cycle;Signal;HPM_P1;HPM_P2
2022/03/10 00:01:29;;;;;;;28.83;14.13;;;;;;;6.08;35.52;101946.72;5064308;28;20045;-64
2022/03/10 00:03:56;;;;;;;27.85;13.95;;;;;;;6.14;35.42;101943.69;5073933;28;20060;-64
2022/03/10 00:06:23;;;;;;;31.33;14.10;;;;;;;6.14;35.45;101943.69;5052317;28;20040;-64
2022/03/10 00:08:49;;;;;;;28.83;13.50;;;;;;;6.05;35.42;101944.28;5060500;28;20045;-64
2022/03/10 00:11:16;;;;;;;28.38;14.18;;;;;;;6.05;35.58;101952.19;5053490;28;20041;-64
2022/03/10 00:13:46;;;;;;;28.80;12.93;;;;;;;5.93;36.27;101945.88;5053408;28;20041;-64
2022/03/10 00:16:12;;;;;;;30.10;14.27;;;;;;;6.04;35.64;101944.38;5053683;28;20163;-64
2022/03/10 00:18:41;;;;;;;31.17;14.30;;;;;;;6.01;35.71;101950.69;5055689;28;20508;-64
2022/03/10 00:21:08;;;;;;;28.85;14.73;;;;;;;6.01;35.71;101942.78;5093770;28;20055;-64
2022/03/10 00:23:35;;;;;;;34.03;13.48;;;;;;;6.02;35.77;101943.63;5070313;28;20040;-64
2022/03/10 00:26:02;;;;;;;29.75;13.05;;;;;;;5.94;35.91;101951.97;5072830;28;20132;-64
2022/03/10 00:28:29;;;;;;;27.90;14.50;;;;;;;5.94;35.61;101965.13;5073706;28;20443;-64
2022/03/10 00:30:56;;;;;;;27.33;13.25;;;;;;;5.91;36.41;101963.53;5056811;28;20037;-64
2022/03/10 00:33:23;;;;;;;29.77;13.80;;;;;;;5.99;36.19;101962.25;5059887;28;20044;-64
2022/03/10 00:35:49;;;;;;;31.48;14.40;;;;;;;5.88;36.79;101969.00;5056582;28;20512;-64
2022/03/10 00:38:17;;;;;;;32.33;14.27;;;;;;;5.83;36.57;101965.78;5072739;28;20057;-64
2022/03/10 00:40:44;;;;;;;31.75;14.13;;;;;;;5.77;37.32;101974.06;5074094;28;20068;-64
2022/03/10 00:43:12;;;;;;;27.77;14.10;;;;;;;5.71;36.10;101971.78;5057002;28;20436;-64
2022/03/10 00:45:40;;;;;;;28.48;14.05;;;;;;;5.64;37.33;101973.97;5044600;28;20434;-64
2022/03/10 00:48:06;;;;;;;31.40;14.23;;;;;;;5.63;37.19;101976.69;5055312;28;20416;-64
2022/03/10 00:50:33;;;;;;;27.42;13.77;;;;;;;5.57;37.42;101981.38;5052324;28;20489;-64
2022/03/10 00:53:00;;;;;;;28.83;13.65;;;;;;;5.59;36.70;101981.28;5068781;28;20047;-64
2022/03/10 00:55:26;;;;;;;27.70;14.70;;;;;;;5.53;37.60;101979.00;5070319;28;20040;-64
2022/03/10 00:57:53;;;;;;;27.30;12.93;;;;;;;5.49;37.24;101980.13;5042679;28;20505;-64
2022/03/10 01:00:22;;;;;;;30.25;14.20;;;;;;;5.45;37.79;101974.19;5053416;28;20098;-64
2022/03/10 01:02:49;;;;;;;31.52;13.82;;;;;;;5.52;37.68;101977.31;5053834;28;20481;-64
2022/03/10 01:05:16;;;;;;;28.75;13.10;;;;;;;5.49;37.62;101975.69;5065623;28;20041;-64
2022/03/10 01:07:42;;;;;;;32.22;14.25;;;;;;;5.51;37.46;101978.25;5069965;28;20492;-64
2022/03/10 01:10:10;;;;;;;31.08;14.57;;;;;;;5.46;38.33;101977.69;5066571;28;20076;-64
2022/03/10 01:12:41;;;;;;;27.98;13.75;;;;;;;5.38;38.11;101986.00;5059653;28;20052;-64
2022/03/10 01:15:15;;;;;;;32.38;13.55;;;;;;;5.43;37.96;101973.44;5032784;28;20053;-64
2022/03/10 01:17:42;;;;;;;32.17;14.05;;;;;;;5.41;37.82;101971.84;5072040;28;20044;-64
2022/03/10 01:20:09;;;;;;;29.30;13.52;;;;;;;5.32;38.43;101973.22;5041944;28;20045;-64
2022/03/10 01:22:36;;;;;;;30.08;13.77;;;;;;;5.36;37.94;101961.59;5020379;28;20523;-64
2022/03/10 01:25:04;;;;;;;29.58;14.40;;;;;;;5.36;38.24;101969.47;5035730;28;20069;-64
2022/03/10 01:27:31;;;;;;;26.75;13.88;;;;;;;5.27;38.60;101955.06;5036835;28;20069;-64
2022/03/10 01:29:58;;;;;;;27.00;13.27;;;;;;;5.28;38.11;101956.78;5039233;28;20070;-64
2022/03/10 01:32:25;;;;;;;34.33;14.18;;;;;;;5.21;38.25;101957.22;5072123;28;20436;-64
2022/03/10 01:34:53;;;;;;;27.67;14.00;;;;;;;5.14;38.53;101952.31;5065442;28;20072;-64
2022/03/10 01:37:20;;;;;;;31.52;15.13;;;;;;;5.12;38.45;101948.91;5050275;28;20041;-64
2022/03/10 01:39:47;;;;;;;27.20;13.55;;;;;;;5.15;39.34;101950.53;5058916;28;20504;-64
2022/03/10 01:42:14;;;;;;;32.60;14.27;;;;;;;5.13;38.93;101955.88;5071757;28;20052;-64
2022/03/10 01:44:40;;;;;;;31.67;14.65;;;;;;;5.13;39.02;101957.66;5052785;28;20049;-64
2022/03/10 01:47:07;;;;;;;31.52;14.85;;;;;;;5.09;38.60;101956.13;5057003;28;20059;-64
2022/03/10 01:49:34;;;;;;;29.58;14.73;;;;;;;5.05;39.82;101957.25;5073030;28;20485;-64
2022/03/10 01:52:02;;;;;;;29.65;13.88;;;;;;;5.08;39.19;101957.94;5022812;28;20064;-64
2022/03/10 01:54:29;;;;;;;31.40;14.38;;;;;;;5.09;38.71;101953.50;5063341;28;20075;-64
2022/03/10 01:56:56;;;;;;;35.00;15.02;;;;;;;5.01;39.04;101951.34;5065338;28;20041;-64
2022/03/10 01:59:23;;;;;;;30.25;14.60;;;;;;;4.93;39.62;101959.66;5034891;28;20037;-64
2022/03/10 02:01:49;;;;;;;29.52;14.48;;;;;;;4.84;39.71;101948.81;5069721;28;20040;-64
2022/03/10 02:04:16;;;;;;;27.52;13.65;;;;;;;4.86;40.25;101949.56;5071467;28;20045;-64
2022/03/10 02:06:44;;;;;;;31.90;14.82;;;;;;;4.86;40.60;101947.81;5070941;28;20040;-64
2022/03/10 02:11:58;;;;;;;30.63;13.68;;;;;;;4.70;41.35;101945.19;5072459;28;20047;-64
2022/03/10 02:17:23;;;;;;;37.63;15.30;;;;;;;4.60;41.16;101946.63;5072540;28;20040;-64
2022/03/10 02:19:52;;;;;;;28.67;13.52;;;;;;;4.49;40.69;101936.72;5056214;28;20135;-64
2022/03/10 02:22:21;;;;;;;27.55;13.55;;;;;;;4.55;41.47;101941.66;5070663;28;20036;-64
2022/03/10 02:24:49;;;;;;;30.83;15.25;;;;;;;4.59;42.05;101939.69;5071697;28;20059;-65
2022/03/10 02:30:00;;;;;;;30.50;14.88;;;;;;;4.57;41.68;101944.19;5090393;27;20385;-64
2022/03/10 02:32:28;;;;;;;30.60;14.75;;;;;;;4.58;41.88;101944.09;5090595;28;20127;-64
2022/03/10 02:34:54;;;;;;;33.53;14.60;;;;;;;4.54;42.12;101942.56;5090742;28;20040;-64
2022/03/10 02:37:21;;;;;;;36.13;15.50;;;;;;;4.53;42.10;101938.25;5090350;28;20554;-64
2022/03/10 02:39:48;;;;;;;32.47;15.45;;;;;;;4.47;42.41;101941.22;5072406;28;20040;-64
2022/03/10 02:42:16;;;;;;;33.63;14.55;;;;;;;4.49;42.28;101935.88;5090291;28;20066;-64
2022/03/10 02:44:44;;;;;;;30.25;14.73;;;;;;;4.47;42.91;101933.31;5089164;28;20036;-64
2022/03/10 02:47:11;;;;;;;33.75;14.57;;;;;;;4.50;43.35;101932.31;5072504;28;20048;-64
2022/03/10 02:49:39;;;;;;;32.10;15.32;;;;;;;4.49;42.67;101926.19;5071801;28;20044;-64
2022/03/10 02:52:07;;;;;;;35.00;15.63;;;;;;;4.49;43.00;101925.34;5082734;28;20520;-64
2022/03/10 02:54:40;;;;;;;36.38;15.75;;;;;;;4.45;42.96;101929.09;5073137;28;20098;-64
2022/03/10 02:57:08;;;;;;;36.38;16.15;;;;;;;4.46;42.81;101934.28;5089908;28;20047;-64
2022/03/10 02:59:35;;;;;;;32.67;15.73;;;;;;;4.47;42.86;101933.31;5088890;28;20520;-64
2022/03/10 03:02:02;;;;;;;31.70;15.25;;;;;;;4.43;43.31;101929.19;5071901;28;20405;-64
2022/03/10 03:04:30;;;;;;;38.38;15.27;;;;;;;4.47;43.61;101930.69;5089062;28;20048;-64
2022/03/10 03:06:56;;;;;;;32.97;14.45;;;;;;;4.35;44.12;101926.97;5055858;28;20052;-64
2022/03/10 03:09:23;;;;;;;35.58;15.05;;;;;;;4.21;43.56;101937.41;5088598;28;20115;-64
2022/03/10 03:11:50;;;;;;;31.75;15.70;;;;;;;4.15;43.99;101933.31;5071736;28;20036;-64
2022/03/10 03:14:17;;;;;;;37.00;16.55;;;;;;;4.11;44.13;101934.44;5071920;28;20118;-64
2022/03/10 03:16:43;;;;;;;36.45;16.08;;;;;;;3.99;44.46;101933.28;5071633;28;20040;-64
2022/03/10 03:19:15;;;;;;;36.67;15.75;;;;;;;4.02;44.57;101927.88;5072508;28;20134;-64
2022/03/10 03:21:41;;;;;;;37.53;16.58;;;;;;;4.02;44.25;101932.28;5088474;28;20036;-64
2022/03/10 03:24:08;;;;;;;37.13;15.50;;;;;;;4.09;44.16;101935.44;5089442;28;20550;-64
2022/03/10 03:26:35;;;;;;;35.38;15.60;;;;;;;4.13;44.25;101934.31;5071886;28;20055;-64
2022/03/10 03:29:02;;;;;;;39.10;16.38;;;;;;;4.21;44.05;101932.16;5089562;28;20456;-64
2022/03/10 03:31:28;;;;;;;35.88;15.90;;;;;;;4.19;44.35;101931.38;5088284;28;20052;-64
2022/03/10 03:33:55;;;;;;;37.53;17.08;;;;;;;4.14;45.09;101936.03;5088380;28;20040;-64
2022/03/10 03:36:22;;;;;;;33.53;15.85;;;;;;;3.93;45.50;101928.38;5054968;28;20084;-64
2022/03/10 03:38:48;;;;;;;43.83;15.98;;;;;;;3.90;45.48;101932.94;5089102;28;20085;-64
2022/03/10 03:41:15;;;;;;;32.42;15.80;;;;;;;4.00;45.25;101942.00;5091943;28;20512;-64
2022/03/10 03:43:42;;;;;;;39.28;16.27;;;;;;;3.99;44.92;101940.34;5058279;28;20049;-64
2022/03/10 03:46:09;;;;;;;36.88;15.52;;;;;;;3.81;45.00;101932.50;5075619;28;20059;-64
2022/03/10 03:48:36;;;;;;;33.92;15.77;;;;;;;3.72;45.40;101951.34;5075514;28;20047;-64
2022/03/10 03:51:02;;;;;;;37.17;16.50;;;;;;;3.82;45.94;101952.59;5074221;28;20045;-64
2022/03/10 03:53:29;;;;;;;36.72;15.98;;;;;;;3.82;46.34;101957.84;5074329;28;20095;-64
2022/03/10 03:55:56;;;;;;;37.00;16.00;;;;;;;3.84;45.77;101960.38;5057761;28;20044;-64
2022/03/10 03:58:22;;;;;;;36.83;16.15;;;;;;;3.67;45.90;101963.88;5074240;28;20430;-64
2022/03/10 04:00:49;;;;;;;36.83;16.40;;;;;;;3.78;46.44;101960.69;5057549;28;20041;-64
2022/03/10 04:03:16;;;;;;;35.85;16.50;;;;;;;3.78;46.51;101966.81;5041205;28;20408;-64
2022/03/10 04:05:43;;;;;;;38.70;16.17;;;;;;;3.81;45.99;101966.63;5074312;28;20056;-64
2022/03/10 04:08:09;;;;;;;32.00;15.57;;;;;;;3.77;46.31;101964.25;5057385;28;20504;-64
2022/03/10 04:10:37;;;;;;;39.10;17.70;;;;;;;3.79;45.83;101963.22;5074135;28;20158;-64
2022/03/10 04:13:05;;;;;;;40.67;16.00;;;;;;;3.76;46.10;101959.91;5040916;28;20106;-65
2022/03/10 04:15:34;;;;;;;34.13;15.93;;;;;;;3.75;46.16;101958.25;5075088;28;20043;-64
2022/03/10 04:18:01;;;;;;;38.72;16.95;;;;;;;3.70;45.99;101962.88;5073714;28;20036;-64
2022/03/10 04:20:30;;;;;;;35.53;17.23;;;;;;;3.76;46.83;101959.91;5074981;28;20118;-64
2022/03/10 04:22:57;;;;;;;43.75;17.35;;;;;;;3.79;46.68;101965.84;5073159;28;20068;-64
2022/03/10 04:25:24;;;;;;;39.05;16.88;;;;;;;3.77;46.58;101964.25;5076695;28;20550;-64
2022/03/10 04:27:53;;;;;;;41.83;16.83;;;;;;;3.75;47.12;101964.31;5070282;28;20135;-64
2022/03/10 04:30:22;;;;;;;43.78;17.25;;;;;;;3.80;46.62;101971.94;5074283;28;20041;-64
2022/03/10 04:32:49;;;;;;;39.15;16.40;;;;;;;3.70;46.81;101971.59;5090913;28;20106;-64
2022/03/10 04:35:18;;;;;;;40.40;16.88;;;;;;;3.72;46.96;101969.72;5057051;28;20045;-64
2022/03/10 04:37:48;;;;;;;36.38;16.70;;;;;;;3.62;46.95;101965.88;5073558;28;20090;-64
2022/03/10 04:40:15;;;;;;;38.63;16.65;;;;;;;3.64;47.39;101961.41;5040630;28;20048;-64
2022/03/10 04:42:42;;;;;;;40.60;16.80;;;;;;;3.61;47.76;101969.44;5074562;28;20404;-65
2022/03/10 04:45:09;;;;;;;38.60;16.33;;;;;;;3.52;46.88;101968.13;5074013;28;20048;-64
2022/03/10 04:47:37;;;;;;;37.78;16.23;;;;;;;3.46;47.54;101968.44;5075093;28;20044;-65
2022/03/10 04:50:05;;;;;;;36.45;16.17;;;;;;;3.43;46.80;101968.59;5090088;28;20043;-64
2022/03/10 04:52:32;;;;;;;37.35;16.05;;;;;;;3.46;46.44;101968.44;5055775;28;20040;-64
2022/03/10 04:54:59;;;;;;;37.90;16.30;;;;;;;3.33;47.62;101967.34;5072877;28;20538;-64
2022/03/10 04:57:27;;;;;;;34.28;16.08;;;;;;;3.38;47.88;101962.72;5073761;28;20046;-64
2022/03/10 04:59:53;;;;;;;41.80;16.85;;;;;;;3.45;47.40;101967.56;5039880;28;20044;-65
2022/03/10 05:02:20;;;;;;;40.47;16.85;;;;;;;3.54;47.35;101968.06;5072785;28;20037;-65
2022/03/10 05:04:47;;;;;;;36.45;16.20;;;;;;;3.59;47.25;101971.28;5106549;28;20378;-64
2022/03/10 05:07:13;;;;;;;36.75;16.45;;;;;;;3.58;46.43;101966.97;5056155;28;20070;-66
2022/03/10 05:09:40;;;;;;;40.17;15.88;;;;;;;3.59;46.87;101966.06;5072385;28;20037;-64
2022/03/10 05:12:07;;;;;;;36.55;16.27;;;;;;;3.66;46.18;101970.06;5072645;28;20077;-65
2022/03/10 05:14:34;;;;;;;37.65;16.83;;;;;;;3.63;46.52;101978.06;5073673;28;20041;-64
2022/03/10 05:17:00;;;;;;;34.80;15.38;;;;;;;3.56;46.40;101971.44;5089242;28;20051;-64
2022/03/10 05:19:27;;;;;;;36.58;16.58;;;;;;;3.55;46.98;101977.63;5072744;28;20505;-66
2022/03/10 05:21:57;;;;;;;39.75;16.80;;;;;;;3.48;47.11;101977.09;5072665;28;20043;-62
2022/03/10 05:24:24;;;;;;;38.90;16.42;;;;;;;3.42;47.35;101973.00;5073595;28;20036;-64
2022/03/10 05:26:51;;;;;;;38.75;15.85;;;;;;;3.42;47.25;101974.75;5056123;28;20048;-64
2022/03/10 05:29:18;;;;;;;37.58;17.25;;;;;;;3.27;47.52;101979.00;5073265;28;20053;-64
2022/03/10 05:31:47;;;;;;;41.10;17.83;;;;;;;3.33;47.78;101976.09;5072469;28;20048;-63
2022/03/10 05:34:14;;;;;;;40.25;17.67;;;;;;;3.28;48.93;101975.47;5073758;28;20045;-64
2022/03/10 05:36:40;;;;;;;41.28;17.40;;;;;;;3.24;47.77;101977.41;5072052;28;20040;-64
2022/03/10 05:39:07;;;;;;;42.70;16.80;;;;;;;3.20;48.79;101977.59;5055909;28;20041;-64
2022/03/10 05:41:34;;;;;;;44.00;17.98;;;;;;;3.23;48.68;101980.09;5072176;28;20089;-64
2022/03/10 05:44:00;;;;;;;48.65;18.17;;;;;;;3.12;48.44;101983.25;5072629;28;20048;-63
2022/03/10 05:46:27;;;;;;;40.58;18.52;;;;;;;3.10;48.76;101986.88;5071895;28;20043;-64
2022/03/10 05:48:54;;;;;;;44.65;18.08;;;;;;;3.16;48.57;101987.41;5055595;28;20037;-64
2022/03/10 05:51:21;;;;;;;42.67;17.20;;;;;;;3.19;48.78;101984.63;5071976;28;20501;-64
2022/03/10 05:53:49;;;;;;;43.03;18.08;;;;;;;3.12;48.90;101990.25;5071798;28;20041;-65
2022/03/10 05:56:17;;;;;;;39.10;17.38;;;;;;;3.07;49.30;101996.59;5055402;28;20063;-64
2022/03/10 05:58:45;;;;;;;37.88;17.38;;;;;;;2.99;49.37;101992.63;5055301;28;20060;-64
2022/03/10 06:01:14;;;;;;;44.03;17.73;;;;;;;3.02;50.08;101989.84;5071687;28;20056;-64
2022/03/10 06:03:41;;;;;;;39.28;17.17;;;;;;;3.11;50.01;101999.03;5071093;28;20048;-64
2022/03/10 06:06:12;;;;;;;41.33;17.85;;;;;;;3.08;49.59;101997.44;5063396;28;20094;-65
2022/03/10 06:08:39;;;;;;;44.40;17.80;;;;;;;3.09;50.20;101996.50;5084943;28;20489;-64
2022/03/10 06:11:07;;;;;;;46.40;17.65;;;;;;;3.13;49.95;101998.06;5052691;28;20045;-65
2022/03/10 06:13:34;;;;;;;40.80;17.20;;;;;;;3.10;50.73;102005.22;5018676;28;20068;-64
2022/03/10 06:16:01;;;;;;;42.67;17.90;;;;;;;3.02;50.03;102009.06;5035490;28;20048;-64
2022/03/10 06:18:28;;;;;;;42.95;17.42;;;;;;;3.12;50.55;102011.25;5035322;28;20041;-64
2022/03/10 06:20:54;;;;;;;47.25;18.42;;;;;;;3.07;50.41;102017.56;5035345;28;20099;-64
2022/03/10 06:23:22;;;;;;;38.17;17.30;;;;;;;3.13;50.62;102016.41;5085104;28;20563;-64
2022/03/10 06:25:48;;;;;;;43.30;17.15;;;;;;;3.16;50.37;102012.78;5065329;28;20039;-64
2022/03/10 06:28:15;;;;;;;41.83;17.42;;;;;;;3.15;50.73;102011.94;5092331;28;20097;-64
2022/03/10 06:30:42;;;;;;;41.72;17.60;;;;;;;3.25;49.93;102014.94;5091699;28;20036;-63
2022/03/10 06:33:09;;;;;;;46.72;17.88;;;;;;;3.15;50.24;102014.56;5091933;28;20047;-63
2022/03/10 06:35:36;;;;;;;41.08;16.08;;;;;;;3.16;49.70;102021.50;5075203;28;20093;-63
2022/03/10 06:38:03;;;;;;;46.25;17.42;;;;;;;3.24;49.66;102015.91;5092590;28;20051;-63
2022/03/10 06:40:29;;;;;;;40.25;17.85;;;;;;;3.41;49.49;102020.31;5092841;28;20036;-63
2022/03/10 06:42:56;;;;;;;45.90;17.90;;;;;;;3.30;50.04;102017.38;5084467;28;20106;-63
2022/03/10 06:45:23;;;;;;;42.10;17.50;;;;;;;3.38;49.98;102017.81;5071487;28;20133;-63
2022/03/10 06:47:50;;;;;;;39.95;17.20;;;;;;;3.29;49.80;102015.66;5071395;28;20052;-65
2022/03/10 06:50:16;;;;;;;39.45;17.30;;;;;;;3.42;49.54;102022.84;5070721;28;20111;-63
2022/03/10 06:52:43;;;;;;;45.60;18.25;;;;;;;3.49;49.99;102023.38;5087892;28;20053;-63
2022/03/10 06:55:10;;;;;;;41.22;17.17;;;;;;;3.43;49.72;102018.44;5070990;28;20054;-64
2022/03/10 06:57:37;;;;;;;42.58;17.35;;;;;;;3.48;49.54;102026.09;5050764;28;20139;-64
2022/03/10 07:00:05;;;;;;;40.85;17.83;;;;;;;3.53;49.60;102027.56;5044738;28;20040;-64
2022/03/10 07:02:31;;;;;;;42.33;17.02;;;;;;;3.67;48.62;102031.25;5062414;28;20048;-64
2022/03/10 07:04:58;;;;;;;42.85;17.60;;;;;;;3.65;48.73;102023.47;5053420;28;20037;-64
2022/03/10 07:07:25;;;;;;;38.45;17.48;;;;;;;3.68;48.89;102027.72;5052466;28;20041;-64
2022/03/10 07:09:52;;;;;;;37.45;17.67;;;;;;;3.78;48.74;102034.19;5084257;28;20045;-64
2022/03/10 07:12:19;;;;;;;38.55;18.45;;;;;;;3.84;48.44;102036.50;5051006;28;20069;-64
2022/03/10 07:14:45;;;;;;;37.65;17.42;;;;;;;3.96;48.59;102037.63;5082499;28;20079;-64
2022/03/10 07:17:12;;;;;;;37.95;16.48;;;;;;;4.03;48.20;102034.59;5076063;28;20093;-64
2022/03/10 07:19:39;;;;;;;42.17;17.50;;;;;;;4.06;47.69;102040.63;5076054;28;20047;-64
2022/03/10 07:22:05;;;;;;;43.65;17.38;;;;;;;4.15;47.42;102034.91;5041743;28;20080;-64
2022/03/10 07:24:35;;;;;;;45.28;18.20;;;;;;;4.25;47.18;102040.53;5074807;28;20048;-64
2022/03/10 07:27:02;;;;;;;41.28;17.45;;;;;;;4.32;46.52;102039.28;5075800;28;20047;-64
2022/03/10 07:29:28;;;;;;;43.38;16.77;;;;;;;4.27;46.52;102036.88;5075350;28;20087;-64
2022/03/10 07:31:56;;;;;;;39.83;17.95;;;;;;;4.35;46.93;102036.50;5074608;28;20090;-64
2022/03/10 07:34:23;;;;;;;42.40;17.35;;;;;;;4.40;46.54;102030.06;5054365;28;20041;-64
2022/03/10 07:36:50;;;;;;;37.97;17.60;;;;;;;4.42;46.70;102043.97;5055338;28;20053;-64
2022/03/10 07:39:16;;;;;;;40.03;17.27;;;;;;;4.56;46.38;102031.84;5054480;28;20061;-64
2022/03/10 07:41:43;;;;;;;44.17;17.70;;;;;;;4.69;45.67;102039.91;5041322;28;20040;-64
2022/03/10 07:44:10;;;;;;;40.47;17.15;;;;;;;4.69;46.17;102037.28;5058005;28;20048;-64
2022/03/10 07:46:37;;;;;;;43.17;17.05;;;;;;;4.76;45.03;102039.47;5057712;28;20047;-64
2022/03/10 07:49:05;;;;;;;47.20;18.45;;;;;;;4.84;45.20;102036.44;5057520;28;20542;-64
2022/03/10 07:51:32;;;;;;;39.80;17.00;;;;;;;4.93;44.53;102042.94;5074429;28;20045;-64
2022/03/10 07:53:58;;;;;;;40.38;17.70;;;;;;;5.16;44.88;102041.66;5057817;28;20044;-64
2022/03/10 07:56:25;;;;;;;35.30;16.90;;;;;;;5.21;44.53;102038.78;5075460;28;20051;-64
2022/03/10 07:58:51;;;;;;;50.42;17.92;;;;;;;5.37;43.84;102040.44;5091404;28;20059;-64
2022/03/10 08:01:18;;;;;;;38.47;17.95;;;;;;;5.42;43.72;102034.06;5041166;28;20068;-64
2022/03/10 08:03:47;;;;;;;41.17;17.33;;;;;;;5.55;43.58;102038.53;5074025;28;20044;-64
2022/03/10 08:06:13;;;;;;;41.35;18.65;;;;;;;5.66;43.96;102037.91;5041341;28;20050;-63
2022/03/10 08:08:40;;;;;;;38.53;17.50;;;;;;;5.82;43.30;102042.25;5075081;28;20562;-63
2022/03/10 08:11:08;;;;;;;38.00;17.52;;;;;;;5.99;42.44;102044.75;5041026;28;20037;-64
2022/03/10 08:13:35;;;;;;;49.35;17.17;;;;;;;6.18;42.11;102041.84;5074803;28;20098;-64
2022/03/10 08:16:02;;;;;;;42.13;17.08;;;;;;;6.32;41.93;102035.75;5057852;28;20041;-63
2022/03/10 08:18:29;;;;;;;39.97;17.80;;;;;;;6.29;41.41;102034.16;5073877;28;20041;-64
2022/03/10 08:20:58;;;;;;;43.05;17.80;;;;;;;6.37;41.07;102030.16;5074023;28;20036;-64
2022/03/10 08:23:26;;;;;;;38.13;18.20;;;;;;;6.60;41.45;102034.00;5074768;28;20073;-64
2022/03/10 08:26:00;;;;;;;38.85;17.08;;;;;;;6.79;41.15;102029.28;5078483;28;20123;-63
2022/03/10 08:28:28;;;;;;;43.72;17.88;;;;;;;6.91;40.11;102022.34;5076703;28;20127;-64
2022/03/10 08:30:54;;;;;;;39.00;17.42;;;;;;;6.99;40.39;102020.09;5094186;28;20032;-63
2022/03/10 08:33:21;;;;;;;39.70;18.00;;;;;;;7.06;40.12;102024.00;5095071;28;20097;-63
2022/03/10 08:35:48;;;;;;;41.25;18.20;;;;;;;7.25;39.68;102025.44;5093572;28;20120;-64
2022/03/10 08:38:16;;;;;;;38.40;17.10;;;;;;;7.34;39.22;102024.00;5094706;28;20051;-64
2022/03/10 08:40:43;;;;;;;41.03;19.00;;;;;;;7.34;39.33;102016.91;5045022;28;20064;-64
2022/03/10 08:43:12;;;;;;;44.03;18.73;;;;;;;7.58;39.45;102016.22;5037142;28;20085;-64
2022/03/10 08:45:39;;;;;;;39.85;17.85;;;;;;;7.82;38.93;102017.22;5053238;28;20498;-64
2022/03/10 08:48:06;;;;;;;43.97;18.25;;;;;;;7.98;39.16;102013.50;5086404;28;20494;-64
2022/03/10 08:50:33;;;;;;;43.80;18.50;;;;;;;7.94;37.95;102007.59;5048229;28;20040;-62
2022/03/10 08:53:00;;;;;;;37.17;17.55;;;;;;;8.15;38.21;101999.97;5076506;28;20468;-63
2022/03/10 08:55:27;;;;;;;49.25;18.63;;;;;;;8.24;37.54;102001.09;5048570;28;20048;-64
2022/03/10 08:57:55;;;;;;;39.67;18.80;;;;;;;8.44;36.91;101994.44;5052398;28;20056;-64
2022/03/10 09:00:22;;;;;;;39.65;17.00;;;;;;;8.57;36.80;101994.44;5053710;28;20067;-64
2022/03/10 09:02:53;;;;;;;38.73;17.47;;;;;;;8.76;36.49;101989.47;5053127;28;20059;-64
2022/03/10 09:05:19;;;;;;;42.50;17.00;;;;;;;8.80;35.78;101990.97;5053229;28;20296;-64
2022/03/10 09:07:46;;;;;;;42.67;18.42;;;;;;;8.74;36.57;101985.25;5036514;28;20060;-64
2022/03/10 09:10:13;;;;;;;45.00;18.83;;;;;;;8.70;35.55;101989.94;5036460;28;20045;-64
2022/03/10 09:12:40;;;;;;;39.63;18.02;;;;;;;8.98;35.53;101990.56;5036168;28;20055;-64
2022/03/10 09:15:08;;;;;;;39.85;18.55;;;;;;;9.02;35.39;101990.22;5067687;28;20045;-64
2022/03/10 09:17:34;;;;;;;43.80;18.23;;;;;;;9.34;34.49;101997.56;5072907;28;20050;-64
2022/03/10 09:20:04;;;;;;;47.33;18.83;;;;;;;9.92;33.64;101991.44;5075040;28;20063;-64
2022/03/10 09:22:31;;;;;;;49.78;18.17;;;;;;;10.87;32.54;101991.00;5061994;28;20081;-64
2022/03/10 09:25:00;;;;;;;43.95;19.65;;;;;;;11.41;30.78;101999.84;5071805;28;20076;-64
2022/03/10 09:27:36;;;;;;;46.00;20.05;;;;;;;11.83;29.86;101994.50;5069870;28;20562;-65
2022/03/10 09:30:06;;;;;;;46.40;20.17;;;;;;;12.53;28.95;101998.16;5055769;28;20759;-64
2022/03/10 09:32:48;;;;;;;46.20;19.45;;;;;;;13.19;27.34;101991.38;5044145;28;20045;-64
2022/03/10 09:35:17;;;;;;;50.00;20.70;;;;;;;14.09;26.16;101997.25;5053660;28;20041;-64
2022/03/10 09:37:44;;;;;;;45.53;21.67;;;;;;;14.62;26.18;101990.41;5067124;28;20485;-65
2022/03/10 09:40:11;;;;;;;52.45;21.95;;;;;;;15.57;24.41;101991.56;5073307;28;20036;-65
2022/03/10 09:42:38;;;;;;;47.63;22.75;;;;;;;16.30;23.56;101993.03;5072119;28;20045;-65
2022/03/10 09:45:08;;;;;;;50.33;22.45;;;;;;;16.95;22.33;101988.88;5086860;28;20040;-64
2022/03/10 09:47:38;;;;;;;53.50;23.27;;;;;;;17.59;22.01;101987.19;5075750;28;20040;-64
2022/03/10 09:50:10;;;;;;;45.10;23.65;;;;;;;18.12;20.88;101990.28;5093401;28;20071;-64
2022/03/10 09:52:38;;;;;;;46.30;22.98;;;;;;;18.65;20.47;101982.44;5064037;28;20056;-65
2022/03/10 09:55:06;;;;;;;47.42;23.25;;;;;;;19.06;19.99;101979.50;5093309;28;20554;-65
2022/03/10 09:57:35;;;;;;;51.00;25.40;;;;;;;18.87;19.95;101970.06;5075990;28;20609;-64
2022/03/10 10:00:02;;;;;;;49.60;23.45;;;;;;;18.62;20.69;101972.03;5075513;28;20044;-65
2022/03/10 10:02:44;;;;;;;54.03;23.77;;;;;;;19.37;19.72;101975.88;5090496;28;20129;-65
2022/03/10 10:05:26;;;;;;;53.90;23.83;;;;;;;19.68;19.37;101975.75;5035833;28;20036;-65
2022/03/10 10:08:14;;;;;;;;;;;;;;;20.70;18.70;101979.56;5020306;28;20053;-65
2022/03/10 10:10:44;;;;;;;43.58;22.33;;;;;;;20.66;18.25;101975.59;5070129;28;19921;-65
2022/03/10 10:16:10;;;;;;;47.60;24.35;;;;;;;21.69;16.76;101967.16;5131306;27;20653;-65
2022/03/10 10:18:39;;;;;;;45.22;23.27;;;;;;;21.93;16.90;101963.13;5091523;28;20048;-65
2022/03/10 10:21:08;;;;;;;46.25;24.85;;;;;;;20.45;17.63;101960.19;5088412;28;20087;-65
2022/03/10 10:23:37;;;;;;;52.30;22.73;;;;;;;21.09;16.98;101960.22;5090273;28;20040;-65
2022/03/10 10:26:06;;;;;;;47.97;22.85;;;;;;;22.02;16.14;101953.81;5089713;28;20048;-65
2022/03/10 10:28:42;;;;;;;46.20;23.48;;;;;;;21.95;16.12;101950.25;5073378;28;20059;-65
2022/03/10 10:31:13;;;;;;;50.42;22.88;;;;;;;22.23;16.33;101955.59;5088866;28;20423;-65
2022/03/10 10:33:42;;;;;;;40.78;22.50;;;;;;;22.61;15.88;101953.22;5089042;28;20050;-65
2022/03/10 10:36:12;;;;;;;45.45;22.90;;;;;;;23.09;15.81;101954.97;5092971;28;20036;-65
2022/03/10 10:38:41;;;;;;;40.08;23.45;;;;;;;23.78;15.10;101960.91;5089003;28;20404;-65
2022/03/10 10:41:28;;;;;;;41.08;23.52;;;;;;;23.82;14.59;101962.19;5095052;28;20040;-65
2022/03/10 10:44:01;;;;;;;41.33;23.17;;;;;;;22.91;15.60;101969.06;5108976;28;20035;-64
2022/03/10 10:46:38;;;;;;;40.75;23.67;;;;;;;23.71;14.85;101957.41;5106670;28;20042;-65
2022/03/10 10:49:11;;;;;;;41.67;23.10;;;;;;;24.20;14.83;101952.47;5093156;28;20049;-65
2022/03/10 10:51:43;;;;;;;44.70;23.13;;;;;;;24.41;13.81;101945.88;5101387;28;20065;-65
2022/03/10 10:54:24;;;;;;;44.20;23.25;;;;;;;22.15;15.36;101944.94;5089661;28;20044;-64
2022/03/10 10:59:39;;;;;;;39.42;23.02;;;;;;;21.26;17.11;101935.66;5110886;27;20186;-65
2022/03/10 11:02:16;;;;;;;40.22;23.17;;;;;;;23.18;15.20;101936.66;5077224;28;20051;-65
2022/03/10 11:04:48;;;;;;;44.13;22.60;;;;;;;23.17;15.78;101927.69;5108766;28;20066;-65
2022/03/10 11:07:17;;;;;;;38.92;22.50;;;;;;;24.63;14.70;101917.41;5108936;28;20044;-65
2022/03/10 11:09:47;;;;;;;40.83;23.05;;;;;;;25.09;14.11;101921.63;5059780;28;20072;-65
2022/03/10 11:12:16;;;;;;;42.75;23.58;;;;;;;25.07;13.40;101914.75;5080057;28;20404;-65
2022/03/10 11:14:45;;;;;;;39.80;21.77;;;;;;;24.89;13.69;101918.25;5099918;28;20067;-65
2022/03/10 11:17:14;;;;;;;42.20;23.65;;;;;;;24.20;13.95;101914.50;5090075;28;20051;-65
2022/03/10 11:19:45;;;;;;;45.88;22.75;;;;;;;24.84;13.36;101916.19;5048113;28;20048;-64
2022/03/10 11:25:25;;;;;;;39.30;22.00;;;;;;;26.44;12.10;101911.72;5048798;27;1912213;-63
2022/03/10 11:27:56;;;;;;;39.13;21.02;;;;;;;25.57;13.21;101903.81;5092109;28;20619;-64
2022/03/10 11:30:29;;;;;;;36.58;21.65;;;;;;;26.24;12.44;101903.03;5092912;28;20035;-65
2022/03/10 11:33:16;;;;;;;38.50;21.35;;;;;;;26.08;12.22;101895.50;5094759;28;20420;-65
2022/03/10 11:35:45;;;;;;;37.67;21.50;;;;;;;26.42;12.51;101893.97;5097513;28;20054;-65
2022/03/10 11:38:14;;;;;;;41.58;21.63;;;;;;;26.20;12.98;101890.97;5043319;28;20078;-65